Blackfords, United Kingdom
Current Conditions -  °F | °C
As of 10:50 PM on Thursday 20 Nov 2014 (Local Time) from EGBB Reporting Station
Haze Haze  
Wind Chill: 39°   Ceiling: 100
Heat Index: 43°   Visibility: 0.75mi
Dew Point: 43°   Wind: 7mph
Humidity: 100%   Direction: 90°E
Pressure: 30.24"   Gusts: NA
Location:  52.69°N, 2.03°W
Report Text: EGBB 202250Z 09006KT 1200 R33/P1500 BR BKN001 OVC003 06/06 Q1024
Loading
Personal Weather Stations






























Interactive Weather Map New forecast layout! Learn more

10-Day Weather Forecast

Advertisements
Track Severe Weather on mobile